Warm Springs, Virginia
Current Conditions -  °F | °C
As of 10:35 PM on Monday 26 Jan 2015 (Local Time) from KHSP Reporting Station
Light Snow Light Snow  
Wind Chill: -14°   Ceiling: 200
Heat Index: -6°   Visibility: 0.25mi
Dew Point: -6°   Wind: 18mph
Humidity: 100%   Direction: 290°WNW
Pressure: 29.59"   Gusts: NA
Location:  38.05°N, 79.79°W
Report Text: KHSP 270335Z AUTO 29016KT 1/4SM -SN OVC002 M06/M06 A2959 RMK AO2 T10621062
Loading
Personal Weather Stations






























Interactive Weather Map New forecast layout! Learn more

10-Day Weather Forecast

Advertisements
Track Severe Weather on mobile